Seleccionar página

Práctica

Nuestro agradecimiento especial a nuestro amigo José Luis de Gear UP por permitirnos utilizar los video tutoriales en nuestra web

leer más

ibertech1

Todos los aeropuertos están desarrollado por Anselmo Parras, todos están desarrollado con las últimas herramientas de optimización para que no baje de Frame los simuladores, todo el sistema de asfalto y de cemento son totalmente reflexivos para que la luz del sol...

leer más

Tour Canarias

Todas las etapas han de volarse en velocidad de simulación 1x, con meteorología real y online en la red VATSIM e IVAO. 2 – El piloto puede elegir cualquier aeronave para la que se esté habilitado. 3 – Las etapas han de volarse en orden y ha de reportar una etapa antes...

leer más

Tour

Tour Inter CanariasDescripción del tour Tour de vuelos visuales y VOR por las Islas Canarias, recorriendo desde la montaña del Teide hasta el precioso puerto de San Jose de la Gomera    Tour VFR EspañaDescripción del tour Tour volando a baja altitud en...

leer más

Operaciónes

En este apartado, es donde podemos realizar nuestra reserva de vuelo, cancelar un vuelo reservado y también poder cambiar de ubicación lo cual no recomendamos cambiar de ubicación si no se está seguro de que en el aeropuerto que queremos hacer el traslado exista un...

leer más

Pistas Preferenciales de España

FIR de Madrid LEBB VRB/03 LEBB 072030Z VRB03KT 9999 FEW045 14/04 Q1014 NOSIG Departures: 30 Arrivals: 30 No hay condiciones LEBG 210/08 LEBG 072030Z 21008KT 9999 SCT025 BKN033 06/03 Q1015 Departures: 04 Arrivals: 04 No hay condiciones LECU 220/11 LEVS 071900Z 22011KT...

leer más

Members

Toggle navigation × Here you can select the number of cards to be placed in a row for each of supported screen resolutions. Your current resolution is highlighted in this way.Number of cards in a row Large desktop 1 2 3 4 6 Desktop 1 2 3 4 6 Tablet 1 2 3 4 6 Phone 1 2...

leer más
abril 2019
L M X J V S D
« Mar    
1234567
891011121314
15161718192021
22232425262728
2930  

Este contenido está restringido a los miembros del sitio. Si ya es usuario, inicie sesión. Los nuevos usuarios pueden registrarse a continuación.

Usuarios Existentes Entrar
   
Registro de Nuevo Usuario
*Campo Obligatorio
Powered by WP-Members
PHP Code Snippets Powered By : XYZScripts.com

WhatsApp chat